Terminal Aerodrome Forecast
Issued by NWS Corpus Christi, TX

Home | Current Version | Previous Version | Text Only | Print | Product List | Glossary On
Versions: 1 2 3 4 5 6 7 8 9 10 11 12 13 14 15 16 17
000
FTUS44 KCRP 262331
TAFCRP
TAF
KCRP 262331Z 2700/2724 13014KT P6SM SCT018 BKN028
      TEMPO 2700/2703 BKN016
     FM270300 15008KT P6SM BKN015
     FM271400 16013KT P6SM SCT015 BKN024
     FM271800 15017G23KT P6SM SCT025 BKN035=

USA.gov is the U.S. government's official web portal to all federal, state and local government web resources and services.